sensor_id;sensor_type;location;lat;lon;timestamp;P1;durP1;ratioP1;P2;durP2;ratioP2
18503;SDS011;9381;54.244;10.074;2023-07-29T00:00:00;8.88;;;6.60;;
18503;SDS011;9381;54.244;10.074;2023-07-29T00:05:00;6.43;;;5.20;;
18503;SDS011;9381;54.244;10.074;2023-07-29T00:10:01;7.77;;;6.40;;
18503;SDS011;9381;54.244;10.074;2023-07-29T00:15:01;6.63;;;5.87;;
18503;SDS011;9381;54.244;10.074;2023-07-29T00:20:02;7.37;;;5.57;;
18503;SDS011;9381;54.244;10.074;2023-07-29T00:25:03;8.50;;;6.83;;
18503;SDS011;9381;54.244;10.074;2023-07-29T00:30:03;8.67;;;5.70;;
18503;SDS011;9381;54.244;10.074;2023-07-29T00:35:04;9.50;;;7.03;;
18503;SDS011;9381;54.244;10.074;2023-07-29T00:40:08;10.17;;;5.70;;
18503;SDS011;9381;54.244;10.074;2023-07-29T00:45:13;5.80;;;5.20;;
18503;SDS011;9381;54.244;10.074;2023-07-29T00:50:14;9.30;;;6.47;;
18503;SDS011;9381;54.244;10.074;2023-07-29T00:55:14;9.43;;;6.00;;
18503;SDS011;9381;54.244;10.074;2023-07-29T01:00:15;7.33;;;5.47;;
18503;SDS011;9381;54.244;10.074;2023-07-29T01:05:17;7.17;;;5.50;;
18503;SDS011;9381;54.244;10.074;2023-07-29T01:20:45;9.87;;;7.63;;
18503;SDS011;9381;54.244;10.074;2023-07-29T01:25:47;8.93;;;7.40;;
18503;SDS011;9381;54.244;10.074;2023-07-29T01:30:48;7.60;;;6.28;;
18503;SDS011;9381;54.244;10.074;2023-07-29T01:35:52;9.77;;;6.53;;
18503;SDS011;9381;54.244;10.074;2023-07-29T01:40:57;10.57;;;7.77;;
18503;SDS011;9381;54.244;10.074;2023-07-29T01:46:02;8.10;;;6.60;;
18503;SDS011;9381;54.244;10.074;2023-07-29T01:51:03;10.93;;;7.80;;
18503;SDS011;9381;54.244;10.074;2023-07-29T01:56:03;9.63;;;6.77;;
18503;SDS011;9381;54.244;10.074;2023-07-29T02:01:04;10.10;;;7.97;;
18503;SDS011;9381;54.244;10.074;2023-07-29T02:06:04;9.38;;;7.68;;
18503;SDS011;9381;54.244;10.074;2023-07-29T02:11:04;12.60;;;8.90;;
18503;SDS011;9381;54.244;10.074;2023-07-29T02:16:05;9.77;;;7.88;;
18503;SDS011;9381;54.244;10.074;2023-07-29T02:21:05;12.27;;;8.52;;
18503;SDS011;9381;54.244;10.074;2023-07-29T02:26:05;11.05;;;8.65;;
18503;SDS011;9381;54.244;10.074;2023-07-29T02:36:37;11.90;;;9.30;;
18503;SDS011;9381;54.244;10.074;2023-07-29T02:41:37;16.85;;;11.25;;
18503;SDS011;9381;54.244;10.074;2023-07-29T02:46:38;15.80;;;10.63;;
18503;SDS011;9381;54.244;10.074;2023-07-29T02:51:38;15.63;;;10.30;;
18503;SDS011;9381;54.244;10.074;2023-07-29T02:56:38;18.08;;;12.80;;
18503;SDS011;9381;54.244;10.074;2023-07-29T03:01:39;20.33;;;13.38;;
18503;SDS011;9381;54.244;10.074;2023-07-29T03:06:39;26.33;;;13.37;;
18503;SDS011;9381;54.244;10.074;2023-07-29T03:11:39;20.10;;;13.10;;
18503;SDS011;9381;54.244;10.074;2023-07-29T03:16:40;21.17;;;14.10;;
18503;SDS011;9381;54.244;10.074;2023-07-29T03:21:40;24.30;;;14.57;;
18503;SDS011;9381;54.244;10.074;2023-07-29T03:26:40;18.60;;;13.07;;
18503;SDS011;9381;54.244;10.074;2023-07-29T03:31:41;21.20;;;12.93;;
18503;SDS011;9381;54.244;10.074;2023-07-29T03:36:41;18.23;;;12.93;;
18503;SDS011;9381;54.244;10.074;2023-07-29T03:41:41;18.27;;;12.40;;
18503;SDS011;9381;54.244;10.074;2023-07-29T03:46:41;20.58;;;13.02;;
18503;SDS011;9381;54.244;10.074;2023-07-29T03:51:42;22.73;;;14.50;;
18503;SDS011;9381;54.244;10.074;2023-07-29T03:56:42;19.40;;;13.23;;
18503;SDS011;9381;54.244;10.074;2023-07-29T04:01:42;16.13;;;12.00;;
18503;SDS011;9381;54.244;10.074;2023-07-29T04:06:43;19.38;;;12.98;;
18503;SDS011;9381;54.244;10.074;2023-07-29T04:11:43;16.43;;;12.87;;
18503;SDS011;9381;54.244;10.074;2023-07-29T04:16:43;25.13;;;15.68;;
18503;SDS011;9381;54.244;10.074;2023-07-29T04:21:44;27.27;;;15.87;;
18503;SDS011;9381;54.244;10.074;2023-07-29T04:26:44;24.63;;;15.20;;
18503;SDS011;9381;54.244;10.074;2023-07-29T04:31:44;25.63;;;16.20;;
18503;SDS011;9381;54.244;10.074;2023-07-29T04:36:45;25.33;;;15.70;;
18503;SDS011;9381;54.244;10.074;2023-07-29T04:41:46;20.63;;;13.33;;
18503;SDS011;9381;54.244;10.074;2023-07-29T04:46:47;19.33;;;13.93;;
18503;SDS011;9381;54.244;10.074;2023-07-29T04:51:47;23.57;;;15.47;;
18503;SDS011;9381;54.244;10.074;2023-07-29T04:56:47;23.50;;;15.20;;
18503;SDS011;9381;54.244;10.074;2023-07-29T05:01:47;20.43;;;14.00;;
18503;SDS011;9381;54.244;10.074;2023-07-29T05:06:48;19.33;;;12.90;;
18503;SDS011;9381;54.244;10.074;2023-07-29T05:11:48;18.50;;;13.53;;
18503;SDS011;9381;54.244;10.074;2023-07-29T05:16:49;17.13;;;12.47;;
18503;SDS011;9381;54.244;10.074;2023-07-29T05:21:49;21.63;;;14.63;;
18503;SDS011;9381;54.244;10.074;2023-07-29T05:26:49;16.38;;;12.60;;
18503;SDS011;9381;54.244;10.074;2023-07-29T05:31:50;17.90;;;12.63;;
18503;SDS011;9381;54.244;10.074;2023-07-29T05:36:50;16.30;;;12.40;;
18503;SDS011;9381;54.244;10.074;2023-07-29T05:41:50;12.97;;;11.00;;
18503;SDS011;9381;54.244;10.074;2023-07-29T05:46:50;10.87;;;9.67;;
18503;SDS011;9381;54.244;10.074;2023-07-29T05:51:51;11.00;;;9.85;;
18503;SDS011;9381;54.244;10.074;2023-07-29T05:56:52;10.67;;;9.23;;
18503;SDS011;9381;54.244;10.074;2023-07-29T06:01:53;10.30;;;8.77;;
18503;SDS011;9381;54.244;10.074;2023-07-29T06:06:53;9.67;;;8.53;;
18503;SDS011;9381;54.244;10.074;2023-07-29T06:11:55;10.20;;;8.07;;
18503;SDS011;9381;54.244;10.074;2023-07-29T06:16:55;10.68;;;9.63;;
18503;SDS011;9381;54.244;10.074;2023-07-29T06:21:56;15.52;;;13.45;;
18503;SDS011;9381;54.244;10.074;2023-07-29T06:26:56;18.20;;;16.07;;
18503;SDS011;9381;54.244;10.074;2023-07-29T06:31:57;18.63;;;16.55;;
18503;SDS011;9381;54.244;10.074;2023-07-29T06:36:58;22.63;;;17.13;;
18503;SDS011;9381;54.244;10.074;2023-07-29T06:41:58;18.87;;;16.17;;
18503;SDS011;9381;54.244;10.074;2023-07-29T06:46:58;20.57;;;17.37;;
18503;SDS011;9381;54.244;10.074;2023-07-29T06:51:59;19.38;;;15.70;;
18503;SDS011;9381;54.244;10.074;2023-07-29T06:57:00;17.77;;;15.53;;
18503;SDS011;9381;54.244;10.074;2023-07-29T07:02:00;23.17;;;20.50;;
18503;SDS011;9381;54.244;10.074;2023-07-29T07:07:01;24.10;;;19.40;;
18503;SDS011;9381;54.244;10.074;2023-07-29T07:12:02;23.87;;;19.23;;
18503;SDS011;9381;54.244;10.074;2023-07-29T07:17:02;21.20;;;18.50;;
18503;SDS011;9381;54.244;10.074;2023-07-29T07:22:03;21.83;;;19.53;;
18503;SDS011;9381;54.244;10.074;2023-07-29T07:27:04;22.47;;;18.57;;
18503;SDS011;9381;54.244;10.074;2023-07-29T07:32:04;19.47;;;16.27;;
18503;SDS011;9381;54.244;10.074;2023-07-29T07:37:05;20.93;;;16.17;;
18503;SDS011;9381;54.244;10.074;2023-07-29T07:42:05;20.00;;;17.00;;
18503;SDS011;9381;54.244;10.074;2023-07-29T07:47:06;18.17;;;15.87;;
18503;SDS011;9381;54.244;10.074;2023-07-29T07:52:06;17.93;;;14.87;;
18503;SDS011;9381;54.244;10.074;2023-07-29T07:57:07;17.77;;;14.77;;
18503;SDS011;9381;54.244;10.074;2023-07-29T08:02:07;20.37;;;15.70;;
18503;SDS011;9381;54.244;10.074;2023-07-29T08:07:07;16.20;;;14.50;;
18503;SDS011;9381;54.244;10.074;2023-07-29T08:12:08;16.55;;;14.10;;
18503;SDS011;9381;54.244;10.074;2023-07-29T08:17:10;16.87;;;14.67;;
18503;SDS011;9381;54.244;10.074;2023-07-29T08:22:10;16.47;;;14.57;;
18503;SDS011;9381;54.244;10.074;2023-07-29T08:27:11;18.40;;;14.70;;
18503;SDS011;9381;54.244;10.074;2023-07-29T08:32:11;17.02;;;14.10;;
18503;SDS011;9381;54.244;10.074;2023-07-29T08:37:11;16.88;;;14.27;;
18503;SDS011;9381;54.244;10.074;2023-07-29T08:42:11;21.07;;;15.30;;
18503;SDS011;9381;54.244;10.074;2023-07-29T08:47:13;16.73;;;13.10;;
18503;SDS011;9381;54.244;10.074;2023-07-29T08:52:14;20.80;;;13.83;;
18503;SDS011;9381;54.244;10.074;2023-07-29T08:57:14;18.33;;;13.20;;
18503;SDS011;9381;54.244;10.074;2023-07-29T09:02:15;16.00;;;13.17;;
18503;SDS011;9381;54.244;10.074;2023-07-29T09:07:15;17.10;;;13.17;;
18503;SDS011;9381;54.244;10.074;2023-07-29T09:12:16;12.97;;;11.63;;
18503;SDS011;9381;54.244;10.074;2023-07-29T09:17:17;12.10;;;10.63;;
18503;SDS011;9381;54.244;10.074;2023-07-29T09:22:18;12.07;;;9.50;;
18503;SDS011;9381;54.244;10.074;2023-07-29T09:27:23;11.53;;;9.80;;
18503;SDS011;9381;54.244;10.074;2023-07-29T09:32:27;13.43;;;9.83;;
18503;SDS011;9381;54.244;10.074;2023-07-29T09:37:27;13.35;;;10.50;;
18503;SDS011;9381;54.244;10.074;2023-07-29T09:42:28;11.23;;;8.65;;
18503;SDS011;9381;54.244;10.074;2023-07-29T09:47:28;13.05;;;8.40;;
18503;SDS011;9381;54.244;10.074;2023-07-29T09:52:29;7.07;;;6.30;;
18503;SDS011;9381;54.244;10.074;2023-07-29T09:57:30;8.63;;;6.17;;
18503;SDS011;9381;54.244;10.074;2023-07-29T10:02:30;5.80;;;5.30;;
18503;SDS011;9381;54.244;10.074;2023-07-29T10:07:31;9.57;;;5.50;;
18503;SDS011;9381;54.244;10.074;2023-07-29T10:12:34;6.20;;;5.60;;
18503;SDS011;9381;54.244;10.074;2023-07-29T10:17:36;9.17;;;5.70;;
18503;SDS011;9381;54.244;10.074;2023-07-29T10:22:40;5.67;;;4.53;;
18503;SDS011;9381;54.244;10.074;2023-07-29T10:27:47;4.90;;;4.50;;
18503;SDS011;9381;54.244;10.074;2023-07-29T10:32:52;5.07;;;4.57;;
18503;SDS011;9381;54.244;10.074;2023-07-29T10:37:53;5.37;;;4.97;;
18503;SDS011;9381;54.244;10.074;2023-07-29T10:43:02;5.67;;;3.83;;
18503;SDS011;9381;54.244;10.074;2023-07-29T10:53:10;3.70;;;3.40;;
18503;SDS011;9381;54.244;10.074;2023-07-29T10:58:15;3.80;;;3.20;;
18503;SDS011;9381;54.244;10.074;2023-07-29T11:03:19;4.67;;;3.17;;
18503;SDS011;9381;54.244;10.074;2023-07-29T11:13:29;2.80;;;2.60;;
18503;SDS011;9381;54.244;10.074;2023-07-29T11:18:32;2.80;;;2.60;;
18503;SDS011;9381;54.244;10.074;2023-07-29T11:23:34;4.23;;;2.43;;
18503;SDS011;9381;54.244;10.074;2023-07-29T11:28:39;3.50;;;2.57;;
18503;SDS011;9381;54.244;10.074;2023-07-29T11:33:40;2.40;;;2.20;;
18503;SDS011;9381;54.244;10.074;2023-07-29T11:38:40;2.40;;;2.20;;
18503;SDS011;9381;54.244;10.074;2023-07-29T11:43:40;3.27;;;2.27;;
18503;SDS011;9381;54.244;10.074;2023-07-29T11:48:41;3.63;;;2.20;;
18503;SDS011;9381;54.244;10.074;2023-07-29T11:53:44;2.80;;;2.60;;
18503;SDS011;9381;54.244;10.074;2023-07-29T11:58:44;1.80;;;1.70;;
18503;SDS011;9381;54.244;10.074;2023-07-29T12:03:45;2.40;;;2.10;;
18503;SDS011;9381;54.244;10.074;2023-07-29T12:08:45;2.20;;;2.00;;
18503;SDS011;9381;54.244;10.074;2023-07-29T12:13:46;2.30;;;2.10;;
18503;SDS011;9381;54.244;10.074;2023-07-29T12:18:47;2.17;;;1.90;;
18503;SDS011;9381;54.244;10.074;2023-07-29T12:23:50;2.97;;;2.30;;
18503;SDS011;9381;54.244;10.074;2023-07-29T12:28:51;2.50;;;2.30;;
18503;SDS011;9381;54.244;10.074;2023-07-29T12:33:55;3.87;;;2.87;;
18503;SDS011;9381;54.244;10.074;2023-07-29T12:38:58;4.60;;;2.30;;
18503;SDS011;9381;54.244;10.074;2023-07-29T12:43:59;2.37;;;2.10;;
18503;SDS011;9381;54.244;10.074;2023-07-29T12:48:59;3.05;;;1.90;;
18503;SDS011;9381;54.244;10.074;2023-07-29T12:54:00;2.93;;;1.90;;
18503;SDS011;9381;54.244;10.074;2023-07-29T12:59:01;2.87;;;2.20;;
18503;SDS011;9381;54.244;10.074;2023-07-29T13:04:01;3.10;;;2.50;;
18503;SDS011;9381;54.244;10.074;2023-07-29T13:09:02;2.83;;;2.03;;
18503;SDS011;9381;54.244;10.074;2023-07-29T13:14:03;3.67;;;2.30;;
18503;SDS011;9381;54.244;10.074;2023-07-29T13:19:03;3.38;;;2.10;;
18503;SDS011;9381;54.244;10.074;2023-07-29T13:24:03;3.90;;;2.47;;
18503;SDS011;9381;54.244;10.074;2023-07-29T13:29:04;3.30;;;2.30;;
18503;SDS011;9381;54.244;10.074;2023-07-29T13:34:04;4.47;;;2.63;;
18503;SDS011;9381;54.244;10.074;2023-07-29T13:39:04;4.33;;;2.57;;
18503;SDS011;9381;54.244;10.074;2023-07-29T13:44:05;2.53;;;2.20;;
18503;SDS011;9381;54.244;10.074;2023-07-29T13:49:05;2.97;;;1.93;;
18503;SDS011;9381;54.244;10.074;2023-07-29T13:54:05;2.87;;;2.20;;
18503;SDS011;9381;54.244;10.074;2023-07-29T13:59:05;2.80;;;2.50;;
18503;SDS011;9381;54.244;10.074;2023-07-29T14:04:06;3.33;;;2.15;;
18503;SDS011;9381;54.244;10.074;2023-07-29T14:09:06;2.40;;;2.20;;
18503;SDS011;9381;54.244;10.074;2023-07-29T14:14:07;3.53;;;2.10;;
18503;SDS011;9381;54.244;10.074;2023-07-29T14:19:07;3.73;;;2.30;;
18503;SDS011;9381;54.244;10.074;2023-07-29T14:24:07;2.60;;;2.23;;
18503;SDS011;9381;54.244;10.074;2023-07-29T14:29:08;4.53;;;2.70;;
18503;SDS011;9381;54.244;10.074;2023-07-29T14:34:08;4.23;;;2.43;;
18503;SDS011;9381;54.244;10.074;2023-07-29T14:39:09;6.27;;;2.90;;
18503;SDS011;9381;54.244;10.074;2023-07-29T14:44:09;4.90;;;2.77;;
18503;SDS011;9381;54.244;10.074;2023-07-29T14:49:10;3.87;;;2.80;;
18503;SDS011;9381;54.244;10.074;2023-07-29T14:54:10;7.57;;;3.17;;
18503;SDS011;9381;54.244;10.074;2023-07-29T14:59:10;4.07;;;3.00;;
18503;SDS011;9381;54.244;10.074;2023-07-29T15:04:11;3.17;;;2.55;;
18503;SDS011;9381;54.244;10.074;2023-07-29T15:09:11;7.90;;;2.67;;
18503;SDS011;9381;54.244;10.074;2023-07-29T15:14:11;3.83;;;2.23;;
18503;SDS011;9381;54.244;10.074;2023-07-29T15:19:11;4.67;;;2.33;;
18503;SDS011;9381;54.244;10.074;2023-07-29T15:24:14;6.87;;;2.53;;
18503;SDS011;9381;54.244;10.074;2023-07-29T15:29:14;5.63;;;2.87;;
18503;SDS011;9381;54.244;10.074;2023-07-29T15:34:14;4.07;;;2.40;;
18503;SDS011;9381;54.244;10.074;2023-07-29T15:39:15;4.00;;;2.70;;
18503;SDS011;9381;54.244;10.074;2023-07-29T15:44:15;3.37;;;2.20;;
18503;SDS011;9381;54.244;10.074;2023-07-29T15:49:16;4.57;;;2.63;;
18503;SDS011;9381;54.244;10.074;2023-07-29T15:54:16;4.03;;;2.23;;
18503;SDS011;9381;54.244;10.074;2023-07-29T15:59:16;3.97;;;2.87;;
18503;SDS011;9381;54.244;10.074;2023-07-29T16:04:17;5.73;;;2.80;;
18503;SDS011;9381;54.244;10.074;2023-07-29T16:09:17;5.33;;;2.80;;
18503;SDS011;9381;54.244;10.074;2023-07-29T16:14:21;4.90;;;2.87;;
18503;SDS011;9381;54.244;10.074;2023-07-29T16:19:23;3.77;;;2.30;;
18503;SDS011;9381;54.244;10.074;2023-07-29T16:24:25;4.47;;;2.60;;
18503;SDS011;9381;54.244;10.074;2023-07-29T16:29:25;3.90;;;2.30;;
18503;SDS011;9381;54.244;10.074;2023-07-29T16:34:26;6.30;;;1.90;;
18503;SDS011;9381;54.244;10.074;2023-07-29T16:39:26;5.20;;;2.77;;
18503;SDS011;9381;54.244;10.074;2023-07-29T16:44:26;5.33;;;2.60;;
18503;SDS011;9381;54.244;10.074;2023-07-29T16:49:27;2.70;;;1.83;;
18503;SDS011;9381;54.244;10.074;2023-07-29T16:54:27;3.90;;;1.97;;
18503;SDS011;9381;54.244;10.074;2023-07-29T16:59:28;5.07;;;2.10;;
18503;SDS011;9381;54.244;10.074;2023-07-29T17:04:28;4.63;;;1.97;;
18503;SDS011;9381;54.244;10.074;2023-07-29T17:09:28;2.60;;;1.93;;
18503;SDS011;9381;54.244;10.074;2023-07-29T17:14:29;3.83;;;1.93;;
18503;SDS011;9381;54.244;10.074;2023-07-29T17:19:29;4.13;;;2.23;;
18503;SDS011;9381;54.244;10.074;2023-07-29T17:24:29;3.50;;;2.03;;
18503;SDS011;9381;54.244;10.074;2023-07-29T17:29:30;3.60;;;2.00;;
18503;SDS011;9381;54.244;10.074;2023-07-29T17:34:31;4.13;;;2.07;;
18503;SDS011;9381;54.244;10.074;2023-07-29T17:39:32;5.43;;;1.97;;
18503;SDS011;9381;54.244;10.074;2023-07-29T17:44:32;5.43;;;2.63;;
18503;SDS011;9381;54.244;10.074;2023-07-29T17:49:32;4.53;;;2.00;;
18503;SDS011;9381;54.244;10.074;2023-07-29T17:54:33;4.23;;;2.10;;
18503;SDS011;9381;54.244;10.074;2023-07-29T17:59:33;5.10;;;2.60;;
18503;SDS011;9381;54.244;10.074;2023-07-29T18:04:33;6.23;;;3.00;;
18503;SDS011;9381;54.244;10.074;2023-07-29T18:09:34;6.23;;;2.73;;
18503;SDS011;9381;54.244;10.074;2023-07-29T18:14:34;5.07;;;2.50;;
18503;SDS011;9381;54.244;10.074;2023-07-29T18:19:38;6.97;;;3.00;;
18503;SDS011;9381;54.244;10.074;2023-07-29T18:24:41;5.57;;;3.33;;
18503;SDS011;9381;54.244;10.074;2023-07-29T18:29:41;6.40;;;2.70;;
18503;SDS011;9381;54.244;10.074;2023-07-29T18:34:42;8.40;;;3.20;;
18503;SDS011;9381;54.244;10.074;2023-07-29T18:39:42;6.95;;;3.03;;
18503;SDS011;9381;54.244;10.074;2023-07-29T18:44:43;7.30;;;2.85;;
18503;SDS011;9381;54.244;10.074;2023-07-29T18:49:44;6.80;;;2.90;;
18503;SDS011;9381;54.244;10.074;2023-07-29T18:54:44;7.97;;;3.00;;
18503;SDS011;9381;54.244;10.074;2023-07-29T18:59:45;6.60;;;2.40;;
18503;SDS011;9381;54.244;10.074;2023-07-29T19:04:46;6.72;;;3.00;;
18503;SDS011;9381;54.244;10.074;2023-07-29T19:09:48;8.33;;;3.33;;
18503;SDS011;9381;54.244;10.074;2023-07-29T19:14:48;5.97;;;3.33;;
18503;SDS011;9381;54.244;10.074;2023-07-29T19:19:49;8.18;;;2.83;;
18503;SDS011;9381;54.244;10.074;2023-07-29T19:24:49;5.27;;;2.30;;
18503;SDS011;9381;54.244;10.074;2023-07-29T19:29:49;6.40;;;2.67;;
18503;SDS011;9381;54.244;10.074;2023-07-29T19:34:53;7.00;;;3.10;;
18503;SDS011;9381;54.244;10.074;2023-07-29T19:39:55;7.27;;;3.03;;
18503;SDS011;9381;54.244;10.074;2023-07-29T19:44:55;8.23;;;3.67;;
18503;SDS011;9381;54.244;10.074;2023-07-29T19:49:55;7.05;;;3.40;;
18503;SDS011;9381;54.244;10.074;2023-07-29T19:54:56;7.47;;;3.58;;
18503;SDS011;9381;54.244;10.074;2023-07-29T19:59:56;10.13;;;3.97;;
18503;SDS011;9381;54.244;10.074;2023-07-29T20:04:56;8.40;;;3.53;;
18503;SDS011;9381;54.244;10.074;2023-07-29T20:09:57;9.20;;;4.10;;
18503;SDS011;9381;54.244;10.074;2023-07-29T20:14:57;8.57;;;4.20;;
18503;SDS011;9381;54.244;10.074;2023-07-29T20:20:00;8.30;;;3.90;;
18503;SDS011;9381;54.244;10.074;2023-07-29T20:25:01;9.30;;;4.13;;
18503;SDS011;9381;54.244;10.074;2023-07-29T20:30:01;10.50;;;4.17;;
18503;SDS011;9381;54.244;10.074;2023-07-29T20:35:02;7.80;;;4.23;;
18503;SDS011;9381;54.244;10.074;2023-07-29T20:40:03;12.63;;;5.00;;
18503;SDS011;9381;54.244;10.074;2023-07-29T20:45:04;11.00;;;4.67;;
18503;SDS011;9381;54.244;10.074;2023-07-29T20:50:05;8.27;;;5.47;;
18503;SDS011;9381;54.244;10.074;2023-07-29T20:55:06;14.10;;;5.30;;
18503;SDS011;9381;54.244;10.074;2023-07-29T21:00:07;9.60;;;5.40;;
18503;SDS011;9381;54.244;10.074;2023-07-29T21:05:10;11.67;;;5.33;;
18503;SDS011;9381;54.244;10.074;2023-07-29T21:10:10;12.13;;;5.50;;
18503;SDS011;9381;54.244;10.074;2023-07-29T21:15:11;9.63;;;5.30;;
18503;SDS011;9381;54.244;10.074;2023-07-29T21:20:12;10.30;;;5.50;;
18503;SDS011;9381;54.244;10.074;2023-07-29T21:25:12;14.68;;;5.75;;
18503;SDS011;9381;54.244;10.074;2023-07-29T21:30:12;11.55;;;5.80;;
18503;SDS011;9381;54.244;10.074;2023-07-29T21:35:13;10.40;;;5.40;;
18503;SDS011;9381;54.244;10.074;2023-07-29T21:40:13;12.40;;;6.80;;
18503;SDS011;9381;54.244;10.074;2023-07-29T21:45:14;14.00;;;5.57;;
18503;SDS011;9381;54.244;10.074;2023-07-29T21:50:15;13.03;;;5.47;;
18503;SDS011;9381;54.244;10.074;2023-07-29T21:55:15;11.02;;;5.68;;
18503;SDS011;9381;54.244;10.074;2023-07-29T22:00:15;15.00;;;7.17;;
18503;SDS011;9381;54.244;10.074;2023-07-29T22:05:16;18.40;;;7.13;;
18503;SDS011;9381;54.244;10.074;2023-07-29T22:10:16;14.50;;;7.75;;
18503;SDS011;9381;54.244;10.074;2023-07-29T22:15:16;20.52;;;9.60;;
18503;SDS011;9381;54.244;10.074;2023-07-29T22:20:17;17.17;;;9.90;;
18503;SDS011;9381;54.244;10.074;2023-07-29T22:25:17;22.80;;;11.30;;
18503;SDS011;9381;54.244;10.074;2023-07-29T22:30:17;21.63;;;9.97;;
18503;SDS011;9381;54.244;10.074;2023-07-29T22:35:18;18.73;;;10.17;;
18503;SDS011;9381;54.244;10.074;2023-07-29T22:40:18;17.30;;;9.73;;
18503;SDS011;9381;54.244;10.074;2023-07-29T22:45:19;18.60;;;10.17;;
18503;SDS011;9381;54.244;10.074;2023-07-29T22:50:19;14.60;;;9.98;;
18503;SDS011;9381;54.244;10.074;2023-07-29T22:55:20;18.70;;;9.73;;
18503;SDS011;9381;54.244;10.074;2023-07-29T23:00:20;14.70;;;8.93;;
18503;SDS011;9381;54.244;10.074;2023-07-29T23:05:20;11.25;;;8.48;;
18503;SDS011;9381;54.244;10.074;2023-07-29T23:10:20;17.95;;;8.38;;
18503;SDS011;9381;54.244;10.074;2023-07-29T23:15:21;7.40;;;5.97;;
18503;SDS011;9381;54.244;10.074;2023-07-29T23:20:21;11.70;;;6.70;;
18503;SDS011;9381;54.244;10.074;2023-07-29T23:25:21;12.32;;;8.13;;
18503;SDS011;9381;54.244;10.074;2023-07-29T23:30:22;12.00;;;7.13;;
18503;SDS011;9381;54.244;10.074;2023-07-29T23:35:22;12.13;;;7.00;;
18503;SDS011;9381;54.244;10.074;2023-07-29T23:40:23;15.20;;;7.55;;
18503;SDS011;9381;54.244;10.074;2023-07-29T23:45:23;14.80;;;6.83;;
18503;SDS011;9381;54.244;10.074;2023-07-29T23:50:24;9.10;;;5.63;;
18503;SDS011;9381;54.244;10.074;2023-07-29T23:55:24;19.73;;;7.30;;
